Time;durP1;ratioP1;P1;durP2;ratioP2;P2;SDS_P1;SDS_P2;PMS_P1;PMS_P2;Temp;Humidity;BMP_temperature;BMP_pressure;BME280_temperature;BME280_humidity;BME280_pressure;Samples;Min_cycle;Max_cycle;Signal;HPM_P1;HPM_P2
2023/12/17 00:02:02;;;;;;;3.55;2.50;;;15.60;47.80;;;;;;5149693;27;45280;-63
2023/12/17 00:04:28;;;;;;;4.15;2.85;;;15.60;47.80;;;;;;5149831;27;45331;-63
2023/12/17 00:06:57;;;;;;;4.00;3.20;;;15.60;47.80;;;;;;5149486;27;46358;-62
2023/12/17 00:09:24;;;;;;;2.88;2.60;;;15.60;47.90;;;;;;5149597;27;45357;-63
2023/12/17 00:11:50;;;;;;;3.83;2.92;;;15.50;47.90;;;;;;5149758;27;45407;-63
2023/12/17 00:14:18;;;;;;;3.20;2.72;;;15.50;47.90;;;;;;5149804;27;45255;-63
2023/12/17 00:16:45;;;;;;;4.60;3.03;;;15.50;47.90;;;;;;5157375;27;47450;-63
2023/12/17 00:19:11;;;;;;;4.63;3.25;;;15.50;47.90;;;;;;5170508;27;45369;-63
2023/12/17 00:21:38;;;;;;;3.03;2.70;;;15.40;47.90;;;;;;5168584;27;45349;-63
2023/12/17 00:24:07;;;;;;;3.13;2.83;;;15.40;48.60;;;;;;5149817;27;45379;-63
2023/12/17 00:26:34;;;;;;;3.42;3.08;;;15.30;48.00;;;;;;5149294;27;46293;-63
2023/12/17 00:29:01;;;;;;;3.97;3.47;;;15.30;47.90;;;;;;5149417;27;45459;-63
2023/12/17 00:31:28;;;;;;;3.75;2.90;;;15.30;48.00;;;;;;5149099;27;45325;-62
2023/12/17 00:33:55;;;;;;;3.60;3.15;;;15.30;48.10;;;;;;5149507;27;45399;-63
2023/12/17 00:36:22;;;;;;;4.28;2.70;;;15.30;48.10;;;;;;5149093;27;46713;-63
2023/12/17 00:38:48;;;;;;;3.63;3.33;;;15.20;48.20;;;;;;5138705;27;45232;-63
2023/12/17 00:41:17;;;;;;;3.85;3.35;;;15.20;48.20;;;;;;5128432;27;45398;-63
2023/12/17 00:43:44;;;;;;;4.03;3.50;;;15.20;48.20;;;;;;5128205;27;45513;-62
2023/12/17 00:46:11;;;;;;;3.42;3.13;;;15.10;48.20;;;;;;5127912;27;45709;-62
2023/12/17 00:48:37;;;;;;;3.83;3.03;;;15.10;48.20;;;;;;5127838;27;45322;-63
2023/12/17 00:51:05;;;;;;;2.97;2.72;;;15.10;48.30;;;;;;5128288;27;45146;-63
2023/12/17 00:53:32;;;;;;;3.25;2.95;;;15.10;48.30;;;;;;5128251;27;45489;-62
2023/12/17 00:55:59;;;;;;;3.47;3.17;;;15.10;48.30;;;;;;5127899;27;47301;-63
2023/12/17 00:58:27;;;;;;;4.05;3.30;;;15.00;48.90;;;;;;5128077;27;45189;-63
2023/12/17 01:00:54;;;;;;;4.30;3.33;;;15.00;48.30;;;;;;5128091;27;45295;-63
2023/12/17 01:03:20;;;;;;;3.80;3.50;;;15.00;48.40;;;;;;5128180;27;45589;-63
2023/12/17 01:05:47;;;;;;;3.40;3.10;;;15.00;48.40;;;;;;5127256;27;45397;-63
2023/12/17 01:08:14;;;;;;;3.58;3.13;;;15.00;48.40;;;;;;5127651;27;45445;-62
2023/12/17 01:10:41;;;;;;;3.60;3.30;;;14.90;48.40;;;;;;5127079;27;45391;-63
2023/12/17 01:13:08;;;;;;;3.33;3.03;;;14.90;48.40;;;;;;5127869;27;45292;-63
2023/12/17 01:15:36;;;;;;;4.10;3.42;;;14.90;48.40;;;;;;5127325;27;46369;-63
2023/12/17 01:18:03;;;;;;;3.00;2.80;;;14.90;49.10;;;;;;5127212;27;45382;-63
2023/12/17 01:20:30;;;;;;;3.15;2.72;;;14.90;48.60;;;;;;5127663;27;45442;-63
2023/12/17 01:22:57;;;;;;;3.67;3.38;;;14.90;48.60;;;;;;5133756;27;45313;-64
2023/12/17 01:25:24;;;;;;;3.42;3.10;;;14.90;48.60;;;;;;5147933;27;46388;-63
2023/12/17 01:27:51;;;;;;;3.70;3.40;;;14.80;48.50;;;;;;5148334;27;45392;-63
2023/12/17 01:30:17;;;;;;;3.45;2.80;;;14.80;48.60;;;;;;5148331;27;45468;-63
2023/12/17 01:32:46;;;;;;;3.80;3.10;;;14.80;48.60;;;;;;5148065;27;45356;-63
2023/12/17 01:35:13;;;;;;;3.28;2.67;;;14.80;48.50;;;;;;5147845;27;47317;-63
2023/12/17 01:37:39;;;;;;;3.60;3.28;;;14.80;48.60;;;;;;5147910;27;45200;-63
2023/12/17 01:40:08;;;;;;;4.78;3.60;;;14.70;48.60;;;;;;5148365;27;45356;-63
2023/12/17 01:42:35;;;;;;;3.70;3.40;;;14.80;48.60;;;;;;5148190;27;45647;-63
2023/12/17 01:45:01;;;;;;;3.80;3.40;;;14.70;49.30;;;;;;5147690;27;46409;-63
2023/12/17 01:47:27;;;;;;;3.25;2.95;;;14.70;48.70;;;;;;5147785;27;45201;-63
2023/12/17 01:49:55;;;;;;;3.60;3.30;;;14.70;48.70;;;;;;5147927;27;45221;-63
2023/12/17 01:52:22;;;;;;;3.80;3.42;;;14.70;49.30;;;;;;5147765;27;45455;-63
2023/12/17 01:54:49;;;;;;;3.50;3.20;;;14.70;48.80;;;;;;5147482;27;45511;-63
2023/12/17 01:57:16;;;;;;;3.83;3.42;;;14.70;48.80;;;;;;5147642;27;45430;-63
2023/12/17 01:59:43;;;;;;;3.50;3.13;;;14.60;48.80;;;;;;5147658;27;45325;-63
2023/12/17 02:02:10;;;;;;;4.50;3.55;;;14.60;48.80;;;;;;5147995;27;45176;-63
2023/12/17 02:04:37;;;;;;;3.40;3.10;;;14.60;48.80;;;;;;5147458;27;47575;-63
2023/12/17 02:07:06;;;;;;;3.50;3.20;;;14.60;48.90;;;;;;5147484;27;45342;-63
2023/12/17 02:09:32;;;;;;;3.28;2.97;;;14.60;48.90;;;;;;5147535;27;45318;-63
2023/12/17 02:11:59;;;;;;;3.85;3.30;;;14.60;49.00;;;;;;5147582;27;45383;-63
2023/12/17 02:14:26;;;;;;;3.35;3.03;;;14.60;48.90;;;;;;5147449;27;46426;-64
2023/12/17 02:16:53;;;;;;;3.15;2.85;;;14.60;49.00;;;;;;5157527;27;45361;-63
2023/12/17 02:19:20;;;;;;;3.40;3.10;;;14.50;48.90;;;;;;5172911;27;45361;-63
2023/12/17 02:21:46;;;;;;;3.30;3.00;;;14.50;48.90;;;;;;5169363;27;45294;-63
2023/12/17 02:24:15;;;;;;;3.47;3.10;;;14.50;48.90;;;;;;5150833;27;45534;-63
2023/12/17 02:26:42;;;;;;;3.08;2.80;;;14.50;48.90;;;;;;5151033;27;45307;-63
2023/12/17 02:29:08;;;;;;;3.20;2.90;;;14.50;48.90;;;;;;5151171;27;45361;-63
2023/12/17 02:31:35;;;;;;;3.28;2.97;;;14.50;49.00;;;;;;5151170;27;45508;-63
2023/12/17 02:34:02;;;;;;;3.45;3.15;;;14.50;49.00;;;;;;5150853;27;45293;-63
2023/12/17 02:36:29;;;;;;;3.40;3.10;;;14.40;48.90;;;;;;5150874;27;45365;-63
2023/12/17 02:38:56;;;;;;;3.03;2.83;;;14.40;48.90;;;;;;5150858;27;45488;-63
2023/12/17 02:41:24;;;;;;;3.53;3.22;;;14.40;48.90;;;;;;5151156;27;45357;-63
2023/12/17 02:43:51;;;;;;;3.72;3.33;;;14.40;49.60;;;;;;5150790;27;46537;-63
2023/12/17 02:46:18;;;;;;;3.30;3.00;;;14.40;48.90;;;;;;5150704;27;45397;-63
2023/12/17 02:48:45;;;;;;;3.30;3.00;;;14.40;49.00;;;;;;5150845;27;45206;-63
2023/12/17 02:51:13;;;;;;;3.47;3.17;;;14.40;49.00;;;;;;5150858;27;45433;-63
2023/12/17 02:53:40;;;;;;;3.40;3.10;;;14.40;49.00;;;;;;5150313;27;46416;-63
2023/12/17 02:56:08;;;;;;;3.35;3.00;;;14.40;49.00;;;;;;5150480;27;45250;-63
2023/12/17 02:58:37;;;;;;;3.50;3.20;;;14.30;49.00;;;;;;5150712;27;45333;-63
2023/12/17 03:01:04;;;;;;;3.67;3.28;;;14.30;49.00;;;;;;5150870;27;45450;-64
2023/12/17 03:03:31;;;;;;;3.30;3.00;;;14.30;49.00;;;;;;5150473;27;46561;-63
2023/12/17 03:05:58;;;;;;;3.35;3.03;;;14.30;49.00;;;;;;5150421;27;45292;-63
2023/12/17 03:08:25;;;;;;;3.63;3.28;;;14.30;49.10;;;;;;5150511;27;45282;-63
2023/12/17 03:10:52;;;;;;;3.30;3.00;;;14.30;49.10;;;;;;5150629;27;45377;-63
2023/12/17 03:13:19;;;;;;;3.20;3.00;;;14.20;49.00;;;;;;5150267;27;45395;-63
2023/12/17 03:15:47;;;;;;;2.90;2.70;;;14.20;49.00;;;;;;5150264;27;45315;-63
2023/12/17 03:18:15;;;;;;;3.28;2.97;;;14.20;49.00;;;;;;5171390;27;45250;-64
2023/12/17 03:20:42;;;;;;;3.10;2.80;;;14.20;49.10;;;;;;5171381;27;45373;-63
2023/12/17 03:23:09;;;;;;;2.67;2.47;;;14.20;49.10;;;;;;5156146;27;47840;-63
2023/12/17 03:25:36;;;;;;;2.90;2.60;;;14.20;49.70;;;;;;5149952;27;45415;-63
2023/12/17 03:28:03;;;;;;;3.05;2.85;;;14.10;49.10;;;;;;5149947;27;45256;-63
2023/12/17 03:30:30;;;;;;;3.45;3.15;;;14.10;49.10;;;;;;5150395;27;45371;-63
2023/12/17 03:32:58;;;;;;;3.45;3.15;;;14.10;49.10;;;;;;5149832;27;45374;-63
2023/12/17 03:35:25;;;;;;;3.40;3.10;;;14.10;49.10;;;;;;5149936;27;45380;-62
2023/12/17 03:37:52;;;;;;;3.22;2.92;;;14.10;49.10;;;;;;5150062;27;45285;-63
2023/12/17 03:40:19;;;;;;;2.83;2.60;;;14.10;49.10;;;;;;5150181;27;45309;-63
2023/12/17 03:42:46;;;;;;;3.20;2.90;;;14.10;49.10;;;;;;5149947;27;46431;-63
2023/12/17 03:45:13;;;;;;;3.17;2.70;;;14.10;49.10;;;;;;5149856;27;45349;-63
2023/12/17 03:47:44;;;;;;;2.90;2.60;;;14.00;49.10;;;;;;5150108;27;45326;-63
2023/12/17 03:50:12;;;;;;;3.00;2.80;;;14.00;49.20;;;;;;5149913;27;45579;-63
2023/12/17 03:52:39;;;;;;;3.33;3.03;;;14.00;49.20;;;;;;5149635;27;45408;-63
2023/12/17 03:55:06;;;;;;;2.92;2.72;;;14.00;49.20;;;;;;5149404;27;45428;-63
2023/12/17 03:57:33;;;;;;;3.00;2.78;;;14.00;49.20;;;;;;5149808;27;45263;-63
2023/12/17 04:00:01;;;;;;;5.40;2.63;;;14.00;49.20;;;;;;5149974;27;45291;-63
2023/12/17 04:02:28;;;;;;;3.40;3.10;;;13.90;49.20;;;;;;5149742;27;46446;-63
2023/12/17 04:04:55;;;;;;;3.45;3.15;;;13.90;49.20;;;;;;5149345;27;45363;-62
2023/12/17 04:07:26;;;;;;;3.17;2.78;;;13.90;49.20;;;;;;5149700;27;45327;-62
2023/12/17 04:09:53;;;;;;;3.30;2.92;;;13.90;49.30;;;;;;5149805;27;45315;-63
2023/12/17 04:12:19;;;;;;;3.25;2.95;;;14.00;49.30;;;;;;5146434;27;46527;-63
2023/12/17 04:14:46;;;;;;;3.25;2.92;;;14.00;49.20;;;;;;5149126;27;45323;-63
2023/12/17 04:17:13;;;;;;;3.10;2.90;;;14.10;49.10;;;;;;5161689;27;45336;-63
2023/12/17 04:19:40;;;;;;;3.10;2.80;;;14.20;49.00;;;;;;5170719;27;45233;-63
2023/12/17 04:22:07;;;;;;;2.35;2.15;;;14.20;48.70;;;;;;5163945;27;46664;-63
2023/12/17 04:24:35;;;;;;;2.85;2.55;;;14.30;48.60;;;;;;5149234;27;45412;-63
2023/12/17 04:27:02;;;;;;;3.10;2.90;;;14.40;48.50;;;;;;5149267;27;45483;-63
2023/12/17 04:29:28;;;;;;;2.65;2.45;;;14.50;48.30;;;;;;5149518;27;45499;-63
2023/12/17 04:31:55;;;;;;;3.33;2.50;;;14.70;48.10;;;;;;5148896;27;45521;-63
2023/12/17 04:34:23;;;;;;;2.78;2.45;;;14.80;47.80;;;;;;5148889;27;45260;-62
2023/12/17 04:36:50;;;;;;;2.85;2.63;;;14.90;47.40;;;;;;5149151;27;45373;-62
2023/12/17 04:39:17;;;;;;;2.60;2.40;;;15.10;47.20;;;;;;5134177;27;45458;-62
2023/12/17 04:41:45;;;;;;;2.72;2.53;;;15.20;47.00;;;;;;5128293;27;45483;-62
2023/12/17 04:44:12;;;;;;;2.35;2.15;;;15.30;46.80;;;;;;5128128;27;45200;-63
2023/12/17 04:46:39;;;;;;;2.70;2.50;;;15.40;46.60;;;;;;5128144;27;45556;-62
2023/12/17 04:49:06;;;;;;;3.22;2.78;;;15.50;46.40;;;;;;5128304;27;45477;-62
2023/12/17 04:51:33;;;;;;;2.80;2.60;;;15.70;46.20;;;;;;5127894;27;46718;-63
2023/12/17 04:53:59;;;;;;;2.53;2.28;;;15.80;45.90;;;;;;5128029;27;45270;-63
2023/12/17 04:56:26;;;;;;;2.17;1.98;;;15.90;45.70;;;;;;5127941;27;45122;-63
2023/12/17 04:58:55;;;;;;;2.33;2.13;;;16.00;45.40;;;;;;5128114;27;45312;-62
2023/12/17 05:01:21;;;;;;;2.80;2.38;;;16.10;45.30;;;;;;5127692;27;46672;-62
2023/12/17 05:03:48;;;;;;;2.33;2.10;;;16.30;45.10;;;;;;5125207;27;45453;-63
2023/12/17 05:06:15;;;;;;;3.35;2.10;;;16.30;44.80;;;;;;5127766;27;45414;-63
2023/12/17 05:08:42;;;;;;;2.40;2.20;;;16.50;44.60;;;;;;5128157;27;45501;-62
2023/12/17 05:11:09;;;;;;;2.22;2.00;;;16.50;44.40;;;;;;5127138;27;46359;-62
2023/12/17 05:13:36;;;;;;;2.17;2.03;;;16.60;44.20;;;;;;5127643;27;45441;-63
2023/12/17 05:16:05;;;;;;;2.88;2.20;;;16.70;44.10;;;;;;5127297;27;45423;-62
2023/12/17 05:18:32;;;;;;;2.08;1.90;;;16.80;44.00;;;;;;5127985;27;45181;-62
2023/12/17 05:20:59;;;;;;;2.53;2.10;;;16.80;43.80;;;;;;5127509;27;45283;-63
2023/12/17 05:23:26;;;;;;;2.00;1.80;;;16.90;43.70;;;;;;5144614;27;45307;-62
2023/12/17 05:25:52;;;;;;;2.00;1.90;;;17.00;43.50;;;;;;5148215;27;45322;-62
2023/12/17 05:28:19;;;;;;;1.85;1.75;;;17.00;43.40;;;;;;5148799;27;45407;-64
2023/12/17 05:30:46;;;;;;;1.98;1.77;;;17.10;43.40;;;;;;5147943;27;46935;-62
2023/12/17 05:33:15;;;;;;;2.00;1.80;;;17.10;43.20;;;;;;5148273;27;45343;-62
2023/12/17 05:35:42;;;;;;;2.20;2.00;;;17.10;43.20;;;;;;5139426;27;45449;-64
2023/12/17 05:38:09;;;;;;;2.33;1.95;;;17.10;43.10;;;;;;5148074;27;45274;-63
2023/12/17 05:40:35;;;;;;;1.83;1.73;;;17.20;43.10;;;;;;5148012;27;47507;-63
2023/12/17 05:43:03;;;;;;;1.88;1.77;;;17.20;43.10;;;;;;5148011;27;45232;-63
2023/12/17 05:45:30;;;;;;;2.20;1.88;;;17.20;43.00;;;;;;5147772;27;45363;-63
2023/12/17 05:47:57;;;;;;;2.10;1.90;;;17.20;42.90;;;;;;5148016;27;45401;-63
2023/12/17 05:50:25;;;;;;;2.13;1.90;;;17.20;42.90;;;;;;5147473;27;45533;-63
2023/12/17 05:52:52;;;;;;;2.17;1.98;;;17.30;42.90;;;;;;5147764;27;45365;-63
2023/12/17 05:55:20;;;;;;;1.92;1.80;;;17.30;42.90;;;;;;5147406;27;45328;-63
2023/12/17 05:57:49;;;;;;;1.60;1.50;;;17.30;42.80;;;;;;5148082;27;45428;-63
2023/12/17 06:00:17;;;;;;;1.73;1.60;;;17.30;42.80;;;;;;5147701;27;45340;-63
2023/12/17 06:02:44;;;;;;;1.80;1.70;;;17.30;42.70;;;;;;5147538;27;45961;-63
2023/12/17 06:05:11;;;;;;;2.25;1.77;;;17.30;42.70;;;;;;5147388;27;45353;-63
2023/12/17 06:07:39;;;;;;;2.10;1.70;;;17.40;42.60;;;;;;5147721;27;45293;-63
2023/12/17 06:10:08;;;;;;;2.10;1.88;;;17.40;42.60;;;;;;5147369;27;46868;-63
2023/12/17 06:12:35;;;;;;;2.08;1.63;;;17.40;42.60;;;;;;5147651;27;45251;-63
2023/12/17 06:15:01;;;;;;;2.00;1.80;;;17.40;42.60;;;;;;5147357;27;45560;-63
2023/12/17 06:17:28;;;;;;;1.95;1.60;;;17.40;42.50;;;;;;5147682;27;45385;-63
2023/12/17 06:19:55;;;;;;;1.90;1.70;;;17.40;42.50;;;;;;5147177;27;45434;-63
2023/12/17 06:22:24;;;;;;;1.90;1.80;;;17.40;42.40;;;;;;5139162;27;45249;-63
2023/12/17 06:24:52;;;;;;;1.42;1.33;;;17.40;42.40;;;;;;5126518;27;45430;-63
2023/12/17 06:27:19;;;;;;;1.90;1.80;;;17.40;42.40;;;;;;5126780;27;45428;-63
2023/12/17 06:29:48;;;;;;;1.77;1.67;;;17.40;42.40;;;;;;5126356;27;47298;-62
2023/12/17 06:32:15;;;;;;;1.60;1.50;;;17.50;42.40;;;;;;5126287;27;45237;-62
2023/12/17 06:34:43;;;;;;;1.67;1.58;;;17.50;42.40;;;;;;5126454;27;45388;-63
2023/12/17 06:37:10;;;;;;;1.60;1.40;;;17.40;42.40;;;;;;5126944;27;45369;-63
2023/12/17 06:39:41;;;;;;;1.33;1.23;;;17.50;42.50;;;;;;5142757;27;46333;-63
2023/12/17 06:42:10;;;;;;;1.42;1.30;;;17.50;42.40;;;;;;5147323;27;45338;-63
2023/12/17 06:44:37;;;;;;;1.48;1.38;;;17.50;42.30;;;;;;5147410;27;45328;-63
2023/12/17 06:47:04;;;;;;;1.25;1.15;;;17.50;42.20;;;;;;5147340;27;45439;-63
2023/12/17 06:49:31;;;;;;;1.98;1.52;;;17.50;42.20;;;;;;5147264;27;45352;-63
2023/12/17 06:51:58;;;;;;;1.48;1.38;;;17.50;42.30;;;;;;5146950;27;45304;-63
2023/12/17 06:54:25;;;;;;;1.40;1.30;;;17.50;42.90;;;;;;5147169;27;45297;-63
2023/12/17 06:56:52;;;;;;;1.50;1.40;;;17.50;42.20;;;;;;5147035;27;45401;-63
2023/12/17 06:59:20;;;;;;;1.40;1.30;;;17.50;42.10;;;;;;5146732;27;45258;-63
2023/12/17 07:01:47;;;;;;;1.30;1.23;;;17.50;42.10;;;;;;5146913;27;45450;-63
2023/12/17 07:04:14;;;;;;;1.23;1.13;;;17.50;42.10;;;;;;5149992;27;45395;-63
2023/12/17 07:06:41;;;;;;;1.50;1.40;;;17.50;42.10;;;;;;5150699;27;45321;-63
2023/12/17 07:09:09;;;;;;;2.13;1.55;;;17.50;42.00;;;;;;5150538;27;45304;-64
2023/12/17 07:11:36;;;;;;;2.15;1.20;;;17.50;42.00;;;;;;5150598;27;45213;-63
2023/12/17 07:14:02;;;;;;;1.73;1.60;;;17.50;42.00;;;;;;5150437;27;45436;-63
2023/12/17 07:16:31;;;;;;;2.13;1.67;;;17.50;42.00;;;;;;5156179;27;45294;-63
2023/12/17 07:18:57;;;;;;;1.50;1.40;;;17.50;42.00;;;;;;5171246;27;46307;-62
2023/12/17 07:21:25;;;;;;;1.80;1.65;;;17.50;42.10;;;;;;5168628;27;45325;-63
2023/12/17 07:23:52;;;;;;;1.55;1.45;;;17.50;42.00;;;;;;5171527;27;45318;-63
2023/12/17 07:26:19;;;;;;;1.63;1.52;;;17.40;42.10;;;;;;5171470;27;45378;-63
2023/12/17 07:28:45;;;;;;;1.55;1.45;;;17.40;42.10;;;;;;5171014;27;45376;-63
2023/12/17 07:31:12;;;;;;;1.52;1.40;;;17.50;42.10;;;;;;5171216;27;45366;-62
2023/12/17 07:33:41;;;;;;;1.67;1.58;;;17.50;42.00;;;;;;5171283;27;45117;-63
2023/12/17 07:36:08;;;;;;;1.58;1.48;;;17.40;42.00;;;;;;5171110;27;45387;-63
2023/12/17 07:38:35;;;;;;;1.55;1.45;;;17.50;42.00;;;;;;5170763;27;46723;-63
2023/12/17 07:41:02;;;;;;;1.85;1.33;;;17.50;42.00;;;;;;5171168;27;45248;-63
2023/12/17 07:43:29;;;;;;;1.55;1.45;;;17.50;42.00;;;;;;5171396;27;45388;-63
2023/12/17 07:45:56;;;;;;;1.98;1.85;;;17.50;42.00;;;;;;5171129;27;45438;-63
2023/12/17 07:48:23;;;;;;;1.40;1.30;;;17.50;42.00;;;;;;5170823;27;46723;-63
2023/12/17 07:50:51;;;;;;;1.35;1.25;;;17.60;42.00;;;;;;5170801;27;45386;-63
2023/12/17 07:53:18;;;;;;;1.60;1.50;;;17.50;41.80;;;;;;5170782;27;45332;-63
2023/12/17 07:55:45;;;;;;;1.55;1.45;;;17.60;41.80;;;;;;5170944;27;45321;-64
2023/12/17 07:58:12;;;;;;;1.55;1.45;;;17.60;41.80;;;;;;5170847;27;45529;-63
2023/12/17 08:00:39;;;;;;;1.67;1.48;;;17.60;41.70;;;;;;5170975;27;45379;-64
2023/12/17 08:03:06;;;;;;;1.60;1.50;;;17.70;41.60;;;;;;5170755;27;45436;-63
2023/12/17 08:05:34;;;;;;;1.30;1.20;;;17.70;41.60;;;;;;5168169;27;45443;-63
2023/12/17 08:08:02;;;;;;;2.85;1.35;;;17.70;41.60;;;;;;5170438;27;46575;-63
2023/12/17 08:10:29;;;;;;;1.40;1.30;;;17.70;41.50;;;;;;5170808;27;45441;-63
2023/12/17 08:12:56;;;;;;;1.27;1.20;;;17.70;41.50;;;;;;5170550;27;45401;-63
2023/12/17 08:15:23;;;;;;;1.33;1.23;;;17.70;41.50;;;;;;5169382;27;45264;-63
2023/12/17 08:17:49;;;;;;;2.13;1.42;;;17.70;42.00;;;;;;5152757;27;45594;-63
2023/12/17 08:20:17;;;;;;;1.38;1.27;;;17.70;41.50;;;;;;5149482;27;45137;-63
2023/12/17 08:22:44;;;;;;;1.38;1.27;;;17.80;41.50;;;;;;5160980;27;45458;-63
2023/12/17 08:25:12;;;;;;;2.03;1.35;;;17.80;41.40;;;;;;5170566;27;45340;-63
2023/12/17 08:27:39;;;;;;;1.60;1.50;;;17.80;41.30;;;;;;5170114;27;46424;-63
2023/12/17 08:30:07;;;;;;;1.60;1.45;;;17.80;41.30;;;;;;5170253;27;45243;-63
2023/12/17 08:32:34;;;;;;;1.55;1.45;;;17.80;41.30;;;;;;5170468;27;45294;-63
2023/12/17 08:35:02;;;;;;;1.30;1.20;;;17.80;41.20;;;;;;5170268;27;45296;-62
2023/12/17 08:37:29;;;;;;;1.60;1.50;;;17.90;41.30;;;;;;5169763;27;45388;-67
2023/12/17 08:39:56;;;;;;;1.58;1.48;;;17.80;41.20;;;;;;5169887;27;45314;-63
2023/12/17 08:42:24;;;;;;;1.50;1.40;;;17.80;41.20;;;;;;5170091;27;45387;-63
2023/12/17 08:44:52;;;;;;;1.83;1.60;;;17.80;41.20;;;;;;5170255;27;45344;-63
2023/12/17 08:47:19;;;;;;;1.30;1.20;;;17.80;41.30;;;;;;5169535;27;46721;-63
2023/12/17 08:49:46;;;;;;;1.60;1.50;;;17.90;41.30;;;;;;5169765;27;45258;-63
2023/12/17 08:52:13;;;;;;;1.55;1.42;;;17.90;41.30;;;;;;5169832;27;45258;-63
2023/12/17 08:54:40;;;;;;;1.73;1.63;;;17.90;41.20;;;;;;5169867;27;45370;-63
2023/12/17 08:57:06;;;;;;;6.38;1.55;;;17.90;41.90;;;;;;5169505;27;46543;-63
2023/12/17 08:59:35;;;;;;;1.75;1.60;;;17.90;41.30;;;;;;5166975;27;45328;-62
2023/12/17 09:02:02;;;;;;;1.60;1.50;;;17.90;41.30;;;;;;5169713;27;45258;-63
2023/12/17 09:04:28;;;;;;;1.42;1.33;;;17.90;41.20;;;;;;5169930;27;45420;-63
2023/12/17 09:06:55;;;;;;;2.65;1.60;;;17.90;41.30;;;;;;5169327;27;46398;-63
2023/12/17 09:09:22;;;;;;;2.50;1.63;;;17.90;41.30;;;;;;5169523;27;45387;-63
2023/12/17 09:11:49;;;;;;;3.38;1.85;;;17.90;41.30;;;;;;5169698;27;45316;-63
2023/12/17 09:14:16;;;;;;;2.00;1.77;;;17.90;41.30;;;;;;5169730;27;45569;-63
2023/12/17 09:16:44;;;;;;;8.07;1.77;;;17.90;41.80;;;;;;5161271;27;46400;-63
2023/12/17 09:19:11;;;;;;;1.80;1.70;;;17.90;41.30;;;;;;5148558;27;45339;-63
2023/12/17 09:21:38;;;;;;;2.70;1.80;;;17.90;41.30;;;;;;5148566;27;45462;-63
2023/12/17 09:24:05;;;;;;;2.78;1.88;;;17.90;41.20;;;;;;5148487;27;45307;-63
2023/12/17 09:26:32;;;;;;;2.03;1.60;;;17.90;41.20;;;;;;5147890;27;46377;-63
2023/12/17 09:29:00;;;;;;;2.13;1.52;;;17.90;41.20;;;;;;5148062;27;45375;-63
2023/12/17 09:31:26;;;;;;;4.00;2.10;;;17.90;41.30;;;;;;5150051;27;45321;-63
2023/12/17 09:33:55;;;;;;;4.93;1.83;;;17.90;41.20;;;;;;5168390;27;45200;-67
2023/12/17 09:36:23;;;;;;;5.70;1.95;;;18.00;41.80;;;;;;5164669;27;45663;-65
2023/12/17 09:38:49;;;;;;;3.30;2.40;;;18.10;41.40;;;;;;5166442;27;45514;-65
2023/12/17 09:41:16;;;;;;;8.70;2.20;;;18.30;41.30;;;;;;5167658;27;45362;-62
2023/12/17 09:43:43;;;;;;;5.18;2.30;;;18.40;41.40;;;;;;5167556;27;45338;-63
2023/12/17 09:46:10;;;;;;;2.72;1.80;;;18.50;40.80;;;;;;5164995;27;47555;-62
2023/12/17 09:48:37;;;;;;;3.97;2.10;;;18.50;40.70;;;;;;5168855;27;45400;-65
2023/12/17 09:51:06;;;;;;;6.00;2.10;;;18.50;41.00;;;;;;5166683;27;45367;-65
2023/12/17 09:53:33;;;;;;;4.10;2.47;;;18.60;40.70;;;;;;5168321;27;45451;-66
2023/12/17 09:56:00;;;;;;;3.30;2.30;;;18.70;40.60;;;;;;5166176;27;47291;-68
2023/12/17 09:58:27;;;;;;;5.53;2.40;;;18.80;40.40;;;;;;5166232;27;45338;-67
2023/12/17 10:00:54;;;;;;;5.32;1.80;;;19.00;41.70;;;;;;5167504;27;45505;-66
2023/12/17 10:03:21;;;;;;;6.47;2.30;;;19.20;41.30;;;;;;5169404;27;45375;-67
2023/12/17 10:05:50;;;;;;;3.72;2.13;;;19.50;41.30;;;;;;5168028;27;45474;-67
2023/12/17 10:08:24;;;;;;;7.10;1.98;;;19.70;41.10;;;;;;5167886;27;45304;-63
2023/12/17 10:10:51;;;;;;;2.20;1.90;;;20.00;41.00;;;;;;5156627;27;45314;-63
2023/12/17 10:13:19;;;;;;;27.05;18.10;;;20.10;39.90;;;;;;5167315;27;45256;-68
2023/12/17 10:15:48;;;;;;;12.52;7.25;;;20.20;39.40;;;;;;5159785;27;45532;-68
2023/12/17 10:18:15;;;;;;;9.63;5.43;;;20.20;39.60;;;;;;5155881;27;45325;-66
2023/12/17 10:20:42;;;;;;;7.68;4.60;;;20.30;39.70;;;;;;5167093;27;45301;-70
2023/12/17 10:23:09;;;;;;;4.22;3.53;;;20.30;39.10;;;;;;5169055;27;45684;-76
2023/12/17 10:25:37;;;;;;;7.97;3.80;;;20.30;39.20;;;;;;5160968;27;47094;-66
2023/12/17 10:28:04;;;;;;;6.57;3.45;;;20.40;39.20;;;;;;5164721;27;45425;-65
2023/12/17 10:30:32;;;;;;;9.45;3.58;;;20.40;39.50;;;;;;5164479;27;45342;-64
2023/12/17 10:32:59;;;;;;;14.43;5.32;;;20.40;39.40;;;;;;5166999;27;45323;-62
2023/12/17 10:35:26;;;;;;;10.90;5.03;;;20.20;38.20;;;;;;5155394;27;46423;-64
2023/12/17 10:37:54;;;;;;;8.85;4.28;;;20.00;39.50;;;;;;5152832;27;45486;-65
2023/12/17 10:40:21;;;;;;;8.68;3.78;;;20.00;39.60;;;;;;5158986;27;45291;-65
2023/12/17 10:42:49;;;;;;;7.57;4.10;;;20.00;39.70;;;;;;5162821;27;45517;-63
2023/12/17 10:45:17;;;;;;;8.35;4.15;;;19.90;39.80;;;;;;5154213;27;45702;-68
2023/12/17 10:47:44;;;;;;;7.03;3.90;;;19.90;39.90;;;;;;5159149;27;45326;-64
2023/12/17 10:50:11;;;;;;;11.88;4.43;;;19.90;40.00;;;;;;5168354;27;45424;-65
2023/12/17 10:52:39;;;;;;;11.85;4.95;;;19.90;40.60;;;;;;5171217;27;45313;-66
2023/12/17 10:55:06;;;;;;;9.35;4.43;;;19.90;40.30;;;;;;5164134;27;45464;-65
2023/12/17 10:57:34;;;;;;;7.82;3.97;;;19.80;40.00;;;;;;5171039;27;45359;-63
2023/12/17 11:00:04;;;;;;;9.68;4.00;;;19.70;40.00;;;;;;5171560;27;45192;-60
2023/12/17 11:02:30;;;;;;;14.40;3.97;;;19.70;40.50;;;;;;5168560;27;45438;-64
2023/12/17 11:04:58;;;;;;;8.95;4.43;;;19.70;39.90;;;;;;5156305;27;46754;-64
2023/12/17 11:07:24;;;;;;;15.88;6.00;;;19.60;40.00;;;;;;5168200;27;45641;-62
2023/12/17 11:09:51;;;;;;;10.00;4.65;;;19.50;40.30;;;;;;5171750;27;45312;-63
2023/12/17 11:12:18;;;;;;;6.82;4.20;;;19.20;40.30;;;;;;5171714;27;45331;-63
2023/12/17 11:14:46;;;;;;;6.78;4.38;;;19.00;40.60;;;;;;5171010;27;46381;-63
2023/12/17 11:17:14;;;;;;;14.75;4.90;;;18.80;40.90;;;;;;5168343;27;45302;-65
2023/12/17 11:19:53;;;;;;;11.32;4.95;;;18.70;41.30;;;;;;5150456;27;45282;-63
2023/12/17 11:22:21;;;;;;;6.88;3.92;;;18.60;41.60;;;;;;5158309;27;45376;-63
2023/12/17 11:24:50;;;;;;;6.35;4.25;;;18.50;41.80;;;;;;5170966;27;46401;-63
2023/12/17 11:27:22;;;;;;;12.30;4.30;;;18.50;41.90;;;;;;5168681;27;45418;-63
2023/12/17 11:29:48;;;;;;;5.68;4.10;;;18.50;42.20;;;;;;5165893;27;45838;-64
2023/12/17 11:32:17;;;;;;;7.95;3.97;;;18.40;42.10;;;;;;5160333;27;45451;-64
2023/12/17 11:34:48;;;;;;;6.85;3.78;;;18.40;42.00;;;;;;5170509;27;47299;-64
2023/12/17 11:37:17;;;;;;;10.43;3.75;;;18.40;42.10;;;;;;5159472;27;45441;-64
2023/12/17 11:39:44;;;;;;;4.00;3.35;;;18.50;42.20;;;;;;5159397;27;45398;-64
2023/12/17 11:42:10;;;;;;;10.25;3.90;;;18.50;42.20;;;;;;5150399;27;45436;-64
2023/12/17 11:44:43;;;;;;;5.45;3.75;;;18.50;42.40;;;;;;5158774;27;45298;-64
2023/12/17 11:47:10;;;;;;;5.55;3.42;;;18.50;42.50;;;;;;5152885;27;45510;-65
2023/12/17 11:49:38;;;;;;;4.55;3.40;;;18.60;42.40;;;;;;5155122;27;45560;-64
2023/12/17 11:52:10;;;;;;;5.07;3.38;;;18.60;43.00;;;;;;5149879;27;45357;-65
2023/12/17 11:54:37;;;;;;;4.20;3.13;;;18.60;42.40;;;;;;5146653;27;46149;-64
2023/12/17 11:57:04;;;;;;;4.38;3.35;;;18.60;42.40;;;;;;5162916;27;45462;-65
2023/12/17 11:59:34;;;;;;;3.75;3.33;;;18.60;42.40;;;;;;5151520;27;45404;-64
2023/12/17 12:02:01;;;;;;;5.55;3.75;;;18.60;42.20;;;;;;5149920;27;45471;-64
2023/12/17 12:04:28;;;;;;;3.75;2.70;;;18.60;42.20;;;;;;5157737;27;45498;-64
2023/12/17 12:06:56;;;;;;;3.90;3.10;;;18.60;42.30;;;;;;5158277;27;45397;-65
2023/12/17 12:09:23;;;;;;;4.60;3.50;;;18.60;42.30;;;;;;5149850;27;45232;-65
2023/12/17 12:11:50;;;;;;;3.88;2.85;;;18.50;42.30;;;;;;5167079;27;45387;-65
2023/12/17 12:14:16;;;;;;;4.30;2.97;;;18.50;42.50;;;;;;5155368;27;46395;-64
2023/12/17 12:16:43;;;;;;;4.18;2.92;;;18.60;42.50;;;;;;5160948;27;45553;-64
2023/12/17 12:19:10;;;;;;;3.47;3.05;;;18.60;42.50;;;;;;5149202;27;45295;-65
2023/12/17 12:21:37;;;;;;;5.40;2.63;;;18.60;42.60;;;;;;5151053;27;45255;-65
2023/12/17 12:24:10;;;;;;;4.88;3.38;;;18.60;42.60;;;;;;5170191;27;47566;-63
2023/12/17 12:26:36;;;;;;;3.78;2.92;;;18.60;42.80;;;;;;5157326;27;45286;-64
2023/12/17 12:29:06;;;;;;;3.78;2.95;;;18.60;42.70;;;;;;5149372;27;45304;-64
2023/12/17 12:31:34;;;;;;;4.00;3.08;;;18.60;42.80;;;;;;5169131;27;45305;-64
2023/12/17 12:34:01;;;;;;;4.00;2.85;;;18.50;42.90;;;;;;5162488;27;46766;-64
2023/12/17 12:36:44;;;;;;;3.60;3.25;;;18.50;43.00;;;;;;5162354;27;45267;-64
2023/12/17 12:39:13;;;;;;;10.77;3.47;;;18.60;43.10;;;;;;5158195;27;45491;-64
2023/12/17 12:41:43;;;;;;;4.68;3.33;;;18.60;43.50;;;;;;5169049;27;45554;-64
2023/12/17 12:44:12;;;;;;;5.10;2.85;;;18.60;42.60;;;;;;5152902;27;46497;-64
2023/12/17 12:46:39;;;;;;;3.85;2.92;;;18.60;42.60;;;;;;5166423;27;45324;-65